createdAt,value
2018-04-02T00:00:02.778Z,7.4
2018-04-02T00:15:03.008Z,7.4
2018-04-02T00:30:02.382Z,7.4
2018-04-02T00:45:02.658Z,7.4
2018-04-02T01:00:02.907Z,7.4
2018-04-02T01:15:03.110Z,7.4
2018-04-02T01:30:02.561Z,7.4
2018-04-02T01:45:02.818Z,7.3
2018-04-02T02:00:03.077Z,7.3
2018-04-02T02:15:02.331Z,7.3
2018-04-02T02:30:02.690Z,7.3
2018-04-02T02:45:02.919Z,7.2
2018-04-02T03:00:03.203Z,7.2
2018-04-02T03:15:02.378Z,7.2
2018-04-02T03:30:02.714Z,7.2
2018-04-02T03:45:03.046Z,7.2
2018-04-02T04:00:02.289Z,7.1
2018-04-02T04:15:02.528Z,7.1
2018-04-02T04:30:02.856Z,7.1
2018-04-02T04:45:03.122Z,7.1
2018-04-02T05:00:02.459Z,7.1
2018-04-02T05:15:02.721Z,7
2018-04-02T05:30:03.075Z,7
2018-04-02T05:45:02.438Z,7
2018-04-02T06:00:02.834Z,7
2018-04-02T06:15:03.114Z,7
2018-04-02T06:30:02.708Z,7
2018-04-02T06:45:02.995Z,7
2018-04-02T07:00:02.372Z,7
2018-04-02T07:15:02.661Z,7
2018-04-02T07:30:02.988Z,7
2018-04-02T07:45:02.321Z,7
2018-04-02T08:00:02.674Z,7.1
2018-04-02T08:15:02.965Z,7.1
2018-04-02T08:30:02.388Z,7.1
2018-04-02T08:45:02.690Z,7.1
2018-04-02T09:00:02.944Z,7.2
2018-04-02T09:15:03.224Z,7.2
2018-04-02T09:30:02.460Z,7.3
2018-04-02T09:45:02.709Z,7.4
2018-04-02T10:00:03.065Z,7.4
2018-04-02T10:15:02.511Z,7.6
2018-04-02T10:30:02.863Z,7.6
2018-04-02T10:45:03.197Z,7.7
2018-04-02T11:00:02.488Z,7.8
2018-04-02T11:15:02.762Z,7.9
2018-04-02T11:30:03.168Z,7.9
2018-04-02T11:45:02.520Z,8
2018-04-02T12:00:02.835Z,8.1
2018-04-02T12:15:03.113Z,8.2
2018-04-02T12:30:02.496Z,8.2
2018-04-02T12:45:02.767Z,8.3
2018-04-02T13:00:02.292Z,8.4
2018-04-02T13:15:02.505Z,8.4
2018-04-02T13:30:02.887Z,8.5
2018-04-02T13:45:03.141Z,8.6
2018-04-02T14:00:02.407Z,8.6
2018-04-02T14:15:02.545Z,8.6
2018-04-02T14:30:02.950Z,8.7
2018-04-02T14:45:03.217Z,8.8
2018-04-02T15:00:02.508Z,8.8
2018-04-02T15:15:02.803Z,8.8
2018-04-02T15:30:03.149Z,8.8
2018-04-02T15:45:02.422Z,8.8
2018-04-02T16:00:02.704Z,8.9
2018-04-02T16:15:02.918Z,8.9
2018-04-02T16:30:02.239Z,8.9
2018-04-02T16:45:02.466Z,8.9
2018-04-02T17:00:02.728Z,8.9
2018-04-02T17:15:02.966Z,8.9
2018-04-02T17:30:02.320Z,8.9
2018-04-02T17:45:02.580Z,8.9
2018-04-02T18:00:02.805Z,8.9
2018-04-02T18:15:03.160Z,8.9
2018-04-02T18:30:02.533Z,8.9
2018-04-02T18:45:02.838Z,8.9
2018-04-02T19:00:03.138Z,8.9
2018-04-02T19:15:02.454Z,8.9
2018-04-02T19:30:02.865Z,8.9
2018-04-02T19:45:03.111Z,8.8
2018-04-02T20:00:02.498Z,8.8
2018-04-02T20:15:02.715Z,8.8
2018-04-02T20:30:03.009Z,8.8
2018-04-02T20:45:02.402Z,8.8
2018-04-02T21:00:02.614Z,8.8
2018-04-02T21:15:02.890Z,8.8
2018-04-02T21:30:02.223Z,8.8
2018-04-02T21:45:02.438Z,8.8
2018-04-02T22:00:02.848Z,8.8
2018-04-02T22:15:03.189Z,8.8
2018-04-02T22:30:02.644Z,8.7
2018-04-02T22:45:02.966Z,8.7
2018-04-02T23:00:02.277Z,8.7
2018-04-02T23:15:02.606Z,8.6
2018-04-02T23:30:03.028Z,8.6
2018-04-02T23:45:02.362Z,8.6
